Il s'agit d'un problème de communication. Allez directement sur le site Meteoalarm : www.meteoalarm.eu et vérifier les avertissements météorologiques..



Thunder radar more information blitzortung!


Rain radar more information rain snow radar



Rapports METAR proximité

   
EHVK - Volkel Rnlafb, Netherlands
Distance: SO 18 km
Mise à jour: 24-01-2022 18:25
Nuageux  
Nuageux  
   Vent: NNO 5.6 km/h
Vent: NNO 5.6 km/h
Température: 2°C
éolien: 1°C
Point de rosée: 1°C
Humidité: 93%
Baromètre: 1033 hPa
Nuageux: Nuageux
visibilité: More than 10 km
Détails des nuages: Nuageux 1900 ft
EHVK 241725Z AUTO 33003KT 180V330 9999 OVC019 02/01 Q1033 WHT
EDLV - Niederrhein, Germany
Distance: SE 25 km
Mise à jour: 24-01-2022 18:20
Nuageux  
Nuageux  
   Vent: varie 5.6 km/h
Vent: varie 5.6 km/h
Température: 5°C
éolien: 4°C
Point de rosée: 2°C
Humidité: 81%
Baromètre: 1034 hPa
Nuageux: Nuageux
visibilité: More than 10 km
Détails des nuages: Nuageux 1700 ft
EDLV 241720Z VRB03KT 9999 BKN017 05/02 Q1034
EHDL - Deelen Rnlafb, Netherlands
Distance: N 35 km
Mise à jour: 24-01-2022 18:25
Nuageux  
Nuageux  
   Vent: ENE 7.4 km/h
Vent: ENE 7.4 km/h
Température: 4°C
éolien: 2°C
Point de rosée: 2°C
Humidité: 87%
Baromètre: 1034 hPa
Nuageux: Nuageux
visibilité: More than 10 km
Détails des nuages: Nuageux 1600 ft
EHDL 241725Z AUTO 06004KT 020V100 9999 OVC016 04/02 Q1034 WHT
EHEH - Eindhoven Rnlafb, Netherlands
Distance: SO 48 km
Mise à jour: 24-01-2022 18:25
Brouillard, Claires  
Brouillard, Claires  
   Vent: NO 3.7 km/h
Vent: NO 3.7 km/h
Température: 0°C
Point de rosée: -1°C
Humidité: 93%
Baromètre: 1034 hPa
Nuageux: Claires
visibilité: 7 km
Détails des nuages: Claires
EHEH 241725Z AUTO 32002KT 7000 BR NCD 00/M01 Q1034 WHT BECMG 4000 BR
EHGR - Gilze-Rijen Rnla, Netherlands
Distance: OSO 70 km
Mise à jour: 24-01-2022 18:26
Nuageux  
Nuageux  
   Vent: NE 9.3 km/h
Vent: NE 9.3 km/h
Température: 2°C
éolien: -1°C
Point de rosée: 0°C
Humidité: 87%
Baromètre: 1034 hPa
Nuageux: Nuageux
visibilité: More than 10 km
Détails des nuages: Nuageux 1800 ft
EHGR 241726Z AUTO 05005KT 010V070 9999 OVC018 02/M00 Q1034 WHT BECMG 4000 BR
EBBL - Kleine-Brogel(Ba, Belgium
Distance: SSO 71 km
Mise à jour: 24-01-2022 18:19
Claires  
Claires  
   Vent: varie 1.9 km/h
Vent: varie 1.9 km/h
Température: 1°C
Point de rosée: 0°C
Humidité: 93%
Baromètre: 1033 hPa
Nuageux: Claires
visibilité: 7 km
Détails des nuages: Claires
EBBL 241719Z VRB01KT 7000 SKC 01/M00 Q1033 WHT WHT TEMPO GRN

Script développé par  Saratoga-weather.org Adapté pour le modèle par  Weerstation Leuven

Vous trouverez notre info météo Également à:

Weather Underground

Équipement que nous utilisons:

Station de Météo
Davis VP2

Programme Météo
Meteobridge

Ordinateur Météo
Apple Imac

Davis VP2

Meteobridge

Apple Imac